Boynton Beach, FL (33435)

5:12 PM EST on December 18, 2014 (GMT -0500)
Palm Beach County | Change Station
CLOSE
Current Station
Personal Weather Station
Location: Boynton Beach, FL
Elevation: 15 ft
Nearby Weather Stations

Elev 15 ft 26.50 °N, 80.07 °W | Updated 20 minutes ago

Clear
Clear
73.0 °F
Feels Like 76 °F
N
1.0
Wind Variable Wind from WNW
Gusts 7.0 mph

Today
High -- | Low -- °F
--% Chance of Precip.
Yesterday
High -- | Low -- °F
Precip. -- in
7:02 AM 5:31 PM
Waning Crescent, 12% visible
Pressure 30.07 in
Visibility 10.0 miles
Clouds Few 3500 ft
Scattered Clouds 25000 ft
Heat Index 76 °F
Dew Point 59 °F
Humidity 61%
Rainfall 0.00 in
Snow Depth Not available.
UV 0 out of 12
Pollen 3.90 out of 12
Air Quality Not available.
Flu Activity Not available.
METAR KPBI 182153Z 28008KT 10SM FEW035 SCT250 22/13 A3007 RMK AO2 SLP182 T02220133

More Conditions Fewer Conditions

Pressure 30.07 in
Visibility 10.0 miles
Clouds Few 3500 ft
Scattered Clouds 25000 ft
Heat Index 76 °F
Dew Point 59 °F
Humidity 61%
Rainfall 0.00 in
Snow Depth Not available.
UV 0 out of 12
Pollen 3.90 out of 12
Air Quality Not available.
Flu Activity Not available.
METAR KPBI 182153Z 28008KT 10SM FEW035 SCT250 22/13 A3007 RMK AO2 SLP182 T02220133

More Conditions Fewer Conditions

10-Day Weather Forecast

Almanac

Astronomy

Dec. 18, 2014 Rise Set
Actual Time
Civil Twilight
Nautical Twilight
Astronomical Twilight
Moon
Length of Visible Light
Length of Day
Tomorrow will be .
, % of the Moon is Illuminated

Today's Extremes

State Highs State Lows

Community

WunderPhotos

Upload Photos

1,779,006 photos uploaded!

WunderBlogs® & News

Nearby

Air Quality

  Air Quality AQ Index Pollutant
Not available.

Snow Depth

Station Depth Elevation

Earthquake Activity

City Distance Mag. Time & Date
Minimum magnitude displayed is 2.5.

Coastal Water Temperatures

Place Temperature

Nearby Weather Stations